createdAt,value
2016-06-06T08:40:11.699Z,63.49
2016-06-06T08:40:21.683Z,63.13
2016-06-06T08:40:31.683Z,63.42
2016-06-06T08:40:41.699Z,63.03
2016-06-06T08:40:51.699Z,62.77
2016-06-06T08:41:01.717Z,62.48
2016-06-06T08:41:11.717Z,62.19
2016-06-06T08:41:21.717Z,62.19
2016-06-06T08:41:31.733Z,62.48
2016-06-06T08:41:41.733Z,61.99
2016-06-06T08:41:51.749Z,61.54
2016-06-06T08:42:01.752Z,61.54
2016-06-06T08:42:11.783Z,61.24
2016-06-06T08:42:21.767Z,61.34
2016-06-06T08:42:31.767Z,61.15
2016-06-06T08:42:41.783Z,61.18
2016-06-06T08:42:51.783Z,60.98
2016-06-06T08:43:01.801Z,60.39
2016-06-06T08:43:11.801Z,59.81
2016-06-06T08:43:21.817Z,60
2016-06-06T08:43:31.817Z,59.64
2016-06-06T08:43:41.817Z,59.55
2016-06-06T08:43:51.833Z,59.16
2016-06-06T08:44:12.022Z,58.97
2016-06-06T08:44:22.178Z,58.77
2016-06-06T08:44:32.022Z,58.99
2016-06-06T08:44:42.022Z,59.19
2016-06-06T08:44:52.038Z,58.7
2016-06-06T08:45:02.666Z,58.14
2016-06-06T08:45:12.041Z,58.34
2016-06-06T08:45:22.041Z,58.02
2016-06-06T08:45:32.056Z,57.95
2016-06-06T08:45:42.056Z,57.95
2016-06-06T08:45:52.072Z,57.75
2016-06-06T08:46:02.074Z,57.39
2016-06-06T08:46:12.074Z,57
2016-06-06T08:46:22.090Z,56.84
2016-06-06T08:46:32.090Z,56.64
2016-06-06T08:46:42.105Z,56.54
2016-06-06T08:46:52.105Z,56.15
2016-06-06T08:47:02.218Z,56.15
2016-06-06T08:47:12.124Z,56.35
2016-06-06T08:47:22.140Z,56.15
2016-06-06T08:47:32.155Z,55.59
2016-06-06T08:47:42.140Z,55.59
2016-06-06T08:47:52.155Z,55.4
2016-06-06T08:48:02.158Z,55.42
2016-06-06T08:48:12.174Z,55.22
2016-06-06T08:48:22.174Z,55.13
2016-06-06T08:48:32.189Z,54.83
2016-06-06T08:48:42.205Z,54.96
2016-06-06T08:48:52.189Z,55.06
2016-06-06T08:49:02.208Z,54.28
2016-06-06T08:49:12.208Z,53.59
2016-06-06T08:49:22.224Z,53.23
2016-06-06T08:49:32.224Z,53.03
2016-06-06T08:49:42.239Z,52.83
2016-06-06T08:49:52.239Z,52.44
2016-06-06T08:50:02.257Z,52.25
2016-06-06T08:50:12.257Z,51.78
2016-06-06T08:50:22.257Z,51.98
2016-06-06T08:50:32.273Z,51.68
2016-06-06T08:50:42.273Z,51.68
2016-06-06T08:50:52.288Z,51.78
2016-06-06T08:51:02.291Z,51.68
2016-06-06T08:51:12.307Z,51.68
2016-06-06T08:51:22.307Z,51.59
2016-06-06T08:51:32.322Z,51.49
2016-06-06T08:51:42.322Z,51.51
2016-06-06T08:51:52.322Z,51.42
2016-06-06T08:52:02.341Z,51.22
2016-06-06T08:52:12.341Z,51.1
2016-06-06T08:52:22.357Z,51.39
2016-06-06T08:52:32.357Z,51.29
2016-06-06T08:52:42.372Z,51.49
2016-06-06T08:52:52.372Z,51.49
2016-06-06T08:53:02.390Z,51.49
2016-06-06T08:53:12.390Z,51.22
2016-06-06T08:53:22.406Z,51.12
2016-06-06T08:53:32.406Z,51.1
2016-06-06T08:53:42.406Z,51.32
2016-06-06T08:53:52.421Z,51.22
2016-06-06T08:54:02.424Z,50.93
2016-06-06T08:54:12.440Z,50.73
2016-06-06T08:54:22.440Z,50.24
2016-06-06T08:54:32.455Z,50.15
2016-06-06T08:54:42.455Z,49.97
2016-06-06T08:54:52.455Z,49.9
2016-06-06T08:55:02.474Z,49.58
2016-06-06T08:55:12.474Z,49.41
2016-06-06T08:55:22.490Z,49.19
2016-06-06T08:55:32.490Z,49.38
2016-06-06T08:55:42.505Z,49.46
2016-06-06T08:55:52.505Z,49.38
2016-06-06T08:56:02.523Z,49.19
2016-06-06T08:56:12.523Z,49.29
2016-06-06T08:56:22.539Z,49.19
2016-06-06T08:56:32.539Z,49.26
2016-06-06T08:56:42.554Z,49.38
2016-06-06T08:56:52.554Z,49.09
2016-06-06T08:57:02.557Z,49.11
2016-06-06T08:57:12.573Z,48.8
2016-06-06T08:57:22.573Z,48.82
2016-06-06T08:57:32.588Z,48.99
2016-06-06T08:57:42.604Z,49.09
2016-06-06T08:57:52.604Z,49.09
2016-06-06T08:58:02.606Z,49.02
2016-06-06T08:58:12.622Z,49.09
2016-06-06T08:58:22.622Z,48.8
2016-06-06T08:58:32.637Z,49.21
2016-06-06T08:58:43.465Z,48.45
2016-06-06T08:58:52.637Z,48.65
2016-06-06T08:59:02.657Z,48.38
2016-06-06T08:59:12.735Z,48.18
2016-06-06T08:59:22.704Z,47.69
2016-06-06T08:59:32.688Z,48.08
2016-06-06T08:59:42.688Z,47.32
2016-06-06T08:59:52.907Z,47.42
2016-06-06T09:00:02.706Z,47.42
2016-06-06T09:00:12.706Z,47.25
2016-06-06T09:00:22.721Z,47.05
2016-06-06T09:00:32.721Z,46.85
2016-06-06T09:00:42.737Z,46.85
2016-06-06T09:00:52.737Z,46.56
2016-06-06T09:01:02.756Z,46.48
2016-06-06T09:01:12.756Z,46.38
2016-06-06T09:01:22.771Z,46.36
2016-06-06T09:01:32.771Z,46.48
2016-06-06T09:01:42.787Z,46.28
2016-06-06T09:01:52.787Z,46.19
2016-06-06T09:02:02.790Z,46.09
2016-06-06T09:02:12.806Z,46.01
2016-06-06T09:02:22.806Z,46.01
2016-06-06T09:02:32.821Z,45.94
2016-06-06T09:02:42.821Z,45.74
2016-06-06T09:02:52.837Z,45.54
2016-06-06T09:03:02.839Z,45.15
2016-06-06T09:03:12.854Z,45.05
2016-06-06T09:03:22.886Z,44.88
2016-06-06T09:03:32.870Z,44.58
2016-06-06T09:03:42.870Z,44.51
2016-06-06T09:03:52.886Z,44.31
2016-06-06T09:04:02.889Z,44.11
2016-06-06T09:04:12.904Z,43.89
2016-06-06T09:04:22.904Z,43.99
2016-06-06T09:04:32.936Z,44.01
2016-06-06T09:04:42.920Z,43.71
2016-06-06T09:04:52.936Z,43.84
2016-06-06T09:05:02.939Z,43.64
2016-06-06T09:05:12.954Z,43.64
2016-06-06T09:05:22.954Z,43.64
2016-06-06T09:05:32.970Z,43.54
2016-06-06T09:05:42.970Z,43.15
2016-06-06T09:05:52.985Z,43.24
2016-06-06T09:06:02.987Z,43.15
2016-06-06T09:06:12.987Z,42.95
2016-06-06T09:06:23.003Z,42.95
2016-06-06T09:06:33.003Z,43.15
2016-06-06T09:06:43.019Z,42.85
2016-06-06T09:06:53.034Z,42.87
2016-06-06T09:07:03.037Z,42.93
2016-06-06T09:07:13.037Z,43.32
2016-06-06T09:07:23.053Z,43.03
2016-06-06T09:07:33.053Z,43.52
2016-06-06T09:07:43.069Z,43.05
2016-06-06T09:07:53.069Z,43.23
2016-06-06T09:08:03.086Z,43.13
2016-06-06T09:08:13.086Z,43.42
2016-06-06T09:08:23.102Z,43.23
2016-06-06T09:08:33.102Z,43.23
2016-06-06T09:08:43.117Z,43.05
2016-06-06T09:08:53.117Z,43.05
2016-06-06T09:09:03.137Z,43.05
2016-06-06T09:09:13.137Z,43.05
2016-06-06T09:09:23.153Z,42.65
2016-06-06T09:09:33.153Z,43.05
2016-06-06T09:09:43.168Z,42.76
2016-06-06T09:09:53.168Z,43.15
2016-06-06T09:10:03.186Z,42.83
2016-06-06T09:10:13.202Z,43.15
2016-06-06T09:10:23.202Z,43.15
2016-06-06T09:10:33.202Z,42.85
2016-06-06T09:10:43.217Z,42.55
2016-06-06T09:10:53.217Z,42.28
2016-06-06T09:11:03.236Z,42.38
2016-06-06T09:11:13.236Z,42.28
2016-06-06T09:11:23.251Z,42.18
2016-06-06T09:11:33.267Z,41.81
2016-06-06T09:11:43.267Z,41.71
2016-06-06T09:11:53.267Z,41.81
2016-06-06T09:12:03.286Z,41.51
2016-06-06T09:12:13.286Z,41.53
2016-06-06T09:12:23.301Z,41.63
2016-06-06T09:12:33.301Z,41.83
2016-06-06T09:12:43.317Z,41.43
2016-06-06T09:12:53.317Z,41.43
2016-06-06T09:13:03.335Z,41.33
2016-06-06T09:13:13.335Z,41.33
2016-06-06T09:13:23.350Z,41.24
2016-06-06T09:13:33.350Z,41.16
2016-06-06T09:13:43.460Z,41.46
2016-06-06T09:13:53.444Z,41.43
2016-06-06T09:14:03.681Z,41.43
2016-06-06T09:14:13.384Z,41.22
2016-06-06T09:14:23.853Z,41.33
2016-06-06T09:14:33.400Z,41.55
2016-06-06T09:14:43.416Z,41.36
2016-06-06T09:14:53.416Z,41.25
2016-06-06T09:15:03.433Z,41.06
2016-06-06T09:15:13.433Z,41.06
2016-06-06T09:15:23.449Z,41.16
2016-06-06T09:15:33.465Z,41.36
2016-06-06T09:15:43.465Z,41.08
2016-06-06T09:15:53.465Z,41.25
2016-06-06T09:16:03.483Z,40.96
2016-06-06T09:16:13.483Z,40.98
2016-06-06T09:16:23.499Z,40.58
2016-06-06T09:16:33.499Z,40.88
2016-06-06T09:16:43.514Z,40.78
2016-06-06T09:16:53.514Z,40.69
2016-06-06T09:17:03.533Z,40.56
2016-06-06T09:17:13.533Z,40.66
2016-06-06T09:17:23.549Z,40.69
2016-06-06T09:17:33.549Z,40.66
2016-06-06T09:17:43.564Z,40.56
2016-06-06T09:17:53.564Z,40.66
2016-06-06T09:18:03.583Z,40.69
2016-06-06T09:18:13.583Z,41.06
2016-06-06T09:18:23.599Z,40.94
2016-06-06T09:18:33.599Z,41.14
2016-06-06T09:18:43.614Z,41.06
2016-06-06T09:18:53.614Z,40.96
2016-06-06T09:19:03.632Z,41.06
2016-06-06T09:19:13.632Z,40.88
2016-06-06T09:19:23.647Z,40.88
2016-06-06T09:19:33.647Z,40.88
2016-06-06T09:19:43.663Z,40.78
2016-06-06T09:19:53.663Z,40.58
2016-06-06T09:20:03.682Z,40.69
2016-06-06T09:20:13.682Z,40.88
2016-06-06T09:20:23.697Z,40.58
2016-06-06T09:20:33.713Z,40.21
2016-06-06T09:20:43.713Z,40.11
2016-06-06T09:20:53.713Z,40.31
2016-06-06T09:21:03.732Z,40.31
2016-06-06T09:21:13.732Z,40.29
2016-06-06T09:21:23.747Z,40.01
2016-06-06T09:21:33.747Z,40.01
2016-06-06T09:21:43.763Z,40.01
2016-06-06T09:21:53.763Z,40.21
2016-06-06T09:22:03.780Z,40.11
2016-06-06T09:22:13.780Z,40.31
2016-06-06T09:22:23.796Z,40.21
2016-06-06T09:22:33.796Z,40.01
2016-06-06T09:22:43.812Z,40.31
2016-06-06T09:22:53.812Z,40.31
2016-06-06T09:23:03.830Z,40.03
2016-06-06T09:23:13.846Z,40.13
2016-06-06T09:23:23.846Z,40.15
2016-06-06T09:23:33.846Z,40.05
2016-06-06T09:23:43.862Z,40.15
2016-06-06T09:23:53.862Z,39.85
2016-06-06T09:24:03.880Z,39.75
2016-06-06T09:24:13.896Z,39.67
2016-06-06T09:24:23.896Z,39.37
2016-06-06T09:24:33.896Z,39.08
2016-06-06T09:24:43.911Z,39.37
2016-06-06T09:24:53.911Z,39.28
2016-06-06T09:25:03.929Z,39.18
2016-06-06T09:25:13.929Z,39
2016-06-06T09:25:23.945Z,39.26
2016-06-06T09:25:33.945Z,39.46
2016-06-06T09:25:43.960Z,39.16
2016-06-06T09:25:53.960Z,39.37
2016-06-06T09:26:03.979Z,39.26
2016-06-06T09:26:13.979Z,39.48
2016-06-06T09:26:23.995Z,39.18
2016-06-06T09:26:34.010Z,39.37
2016-06-06T09:26:44.010Z,38.98
2016-06-06T09:26:54.010Z,39.48
2016-06-06T09:27:04.029Z,39.85
2016-06-06T09:27:14.044Z,39.65
2016-06-06T09:27:24.044Z,39.65
2016-06-06T09:27:34.060Z,39.95
2016-06-06T09:27:44.060Z,39.37
2016-06-06T09:27:54.060Z,39.37
2016-06-06T09:28:04.079Z,39.28
2016-06-06T09:28:14.079Z,39.18
2016-06-06T09:28:24.094Z,38.88
2016-06-06T09:28:34.110Z,39
2016-06-06T09:28:44.110Z,38.98
2016-06-06T09:28:54.110Z,39.2
2016-06-06T09:29:04.128Z,39.28
2016-06-06T09:29:14.190Z,39.2
2016-06-06T09:29:24.143Z,39
2016-06-06T09:29:34.159Z,38.8
2016-06-06T09:29:44.159Z,38.32
2016-06-06T09:29:54.190Z,38.32
2016-06-06T09:30:04.177Z,38.72
2016-06-06T09:30:14.193Z,38.62
2016-06-06T09:30:24.193Z,38.6
2016-06-06T09:30:34.209Z,38.21
2016-06-06T09:30:44.209Z,38.23
2016-06-06T09:30:54.224Z,38.32
2016-06-06T09:31:04.226Z,38.42
2016-06-06T09:31:14.242Z,38.42
2016-06-06T09:31:24.242Z,38.13
2016-06-06T09:31:34.258Z,38.13
2016-06-06T09:31:44.258Z,38.05
2016-06-06T09:31:54.273Z,38.05
2016-06-06T09:32:04.276Z,37.95
2016-06-06T09:32:14.292Z,37.85
2016-06-06T09:32:24.292Z,37.95
2016-06-06T09:32:34.307Z,37.45
2016-06-06T09:32:44.307Z,37.77
2016-06-06T09:32:54.323Z,37.07
2016-06-06T09:33:04.326Z,37.07
2016-06-06T09:33:14.342Z,36.98
2016-06-06T09:33:24.342Z,37.19
2016-06-06T09:33:34.357Z,37.88
2016-06-06T09:33:44.357Z,37.88
2016-06-06T09:33:54.373Z,37.79
2016-06-06T09:34:04.376Z,37.79
2016-06-06T09:34:14.392Z,37.69
2016-06-06T09:34:24.392Z,37.69
2016-06-06T09:34:34.407Z,37.11
2016-06-06T09:34:44.423Z,37.21
2016-06-06T09:34:54.423Z,37.3
2016-06-06T09:35:04.426Z,37.3
2016-06-06T09:35:14.457Z,37.3
2016-06-06T09:35:24.457Z,37.01
2016-06-06T09:35:34.457Z,36.91
2016-06-06T09:35:44.473Z,36.81
2016-06-06T09:35:54.473Z,37.21
2016-06-06T09:36:04.490Z,37.3
2016-06-06T09:36:14.490Z,37.3
2016-06-06T09:36:24.490Z,37.03
2016-06-06T09:36:34.506Z,37.03
2016-06-06T09:36:44.522Z,36.93
2016-06-06T09:36:54.522Z,36.83
2016-06-06T09:37:04.540Z,36.93
2016-06-06T09:37:14.540Z,36.63
2016-06-06T09:37:24.556Z,36.83
2016-06-06T09:37:34.556Z,36.81
2016-06-06T09:37:44.571Z,36.71
2016-06-06T09:37:54.571Z,37.07
2016-06-06T09:38:04.589Z,36.9
2016-06-06T09:38:14.589Z,36.99
2016-06-06T09:38:24.605Z,36.69
2016-06-06T09:38:34.605Z,36.69
2016-06-06T09:38:44.620Z,36.79
2016-06-06T09:38:54.620Z,36.99
2016-06-06T09:39:04.639Z,36.9
2016-06-06T09:39:14.655Z,36.69
2016-06-06T09:39:24.655Z,36.69
2016-06-06T09:39:34.670Z,36.9
2016-06-06T09:39:44.670Z,37.01
2016-06-06T09:39:54.670Z,37.09
2016-06-06T09:40:04.689Z,37.37
2016-06-06T09:40:14.689Z,37.17
2016-06-06T09:40:24.704Z,37.57
2016-06-06T09:40:34.720Z,37.39
2016-06-06T09:40:44.720Z,37.67
2016-06-06T09:40:54.736Z,37.85
2016-06-06T09:41:04.739Z,37.85
2016-06-06T09:41:14.754Z,38.05
2016-06-06T09:41:24.770Z,38.07
2016-06-06T09:41:34.770Z,37.96
2016-06-06T09:41:44.786Z,38.07
2016-06-06T09:41:54.786Z,38.17
2016-06-06T09:42:04.788Z,38.07
2016-06-06T09:42:14.819Z,37.88
2016-06-06T09:42:24.803Z,37.59
2016-06-06T09:42:34.819Z,37.19
2016-06-06T09:42:44.819Z,37.19
2016-06-06T09:42:54.834Z,37.3
2016-06-06T09:43:04.837Z,37.3
2016-06-06T09:43:14.853Z,37.21
2016-06-06T09:43:24.853Z,37.01
2016-06-06T09:43:34.869Z,37.3
2016-06-06T09:43:44.869Z,37.21
2016-06-06T09:43:54.884Z,37.7
2016-06-06T09:44:05.089Z,37.01
2016-06-06T09:44:15.027Z,37.3
2016-06-06T09:44:25.605Z,37.09
2016-06-06T09:44:35.589Z,36.79
2016-06-06T09:44:45.230Z,37.27
2016-06-06T09:44:54.933Z,37.29
2016-06-06T09:45:04.953Z,37.29
2016-06-06T09:45:14.953Z,37.07
2016-06-06T09:45:24.968Z,36.98
2016-06-06T09:45:34.968Z,37.07
2016-06-06T09:45:44.984Z,37.07
2016-06-06T09:45:54.984Z,36.98
2016-06-06T09:46:05.002Z,37.05
2016-06-06T09:46:15.002Z,37.17
2016-06-06T09:46:25.017Z,37.27
2016-06-06T09:46:35.017Z,37.17
2016-06-06T09:46:45.033Z,37.07
2016-06-06T09:46:55.049Z,37.17
2016-06-06T09:47:05.052Z,37.07
2016-06-06T09:47:15.052Z,37.27
2016-06-06T09:47:25.067Z,36.98
2016-06-06T09:47:35.067Z,36.88
2016-06-06T09:47:45.098Z,37.07
2016-06-06T09:47:55.083Z,36.88
2016-06-06T09:48:05.100Z,36.98
2016-06-06T09:48:15.116Z,37.17
2016-06-06T09:48:25.116Z,36.88
2016-06-06T09:48:35.132Z,37.07
2016-06-06T09:48:45.132Z,36.88
2016-06-06T09:48:55.147Z,37.15
2016-06-06T09:49:05.150Z,37.35
2016-06-06T09:49:15.166Z,37.13
2016-06-06T09:49:25.166Z,37.15
2016-06-06T09:49:35.182Z,37.65
2016-06-06T09:49:45.182Z,37.15
2016-06-06T09:49:55.197Z,37.35
2016-06-06T09:50:05.199Z,37.13
2016-06-06T09:50:15.215Z,37.85
2016-06-06T09:50:25.230Z,37.75
2016-06-06T09:50:35.230Z,37.65
2016-06-06T09:50:45.230Z,37.91
2016-06-06T09:50:55.246Z,37.85
2016-06-06T09:51:05.265Z,37.55
2016-06-06T09:51:15.265Z,37.15
2016-06-06T09:51:25.265Z,37.35
2016-06-06T09:51:35.280Z,37.45
2016-06-06T09:51:45.280Z,37.55
2016-06-06T09:51:55.296Z,37.07
2016-06-06T09:52:05.315Z,36.98
2016-06-06T09:52:15.315Z,36.98
2016-06-06T09:52:25.315Z,36.9
2016-06-06T09:52:35.330Z,36.68
2016-06-06T09:52:45.330Z,36.79
2016-06-06T09:52:55.346Z,36.77
2016-06-06T09:53:05.364Z,36.79
2016-06-06T09:53:15.364Z,36.81
2016-06-06T09:53:25.380Z,36.9
2016-06-06T09:53:35.380Z,36.98
2016-06-06T09:53:45.396Z,36.9
2016-06-06T09:53:55.396Z,36.9
2016-06-06T09:54:05.414Z,37.29
2016-06-06T09:54:15.414Z,36.79
2016-06-06T09:54:25.430Z,37.07
2016-06-06T09:54:35.430Z,37.57
2016-06-06T09:54:45.446Z,37.57
2016-06-06T09:54:55.461Z,37.07
2016-06-06T09:55:05.463Z,37.47
2016-06-06T09:55:15.463Z,37.37
2016-06-06T09:55:25.479Z,36.98
2016-06-06T09:55:35.479Z,36.9
2016-06-06T09:55:45.494Z,37.29
2016-06-06T09:55:55.510Z,37.01
2016-06-06T09:56:05.513Z,37.01
2016-06-06T09:56:15.529Z,37.01
2016-06-06T09:56:25.529Z,36.73
2016-06-06T09:56:35.544Z,36.91
2016-06-06T09:56:45.544Z,36.79
2016-06-06T09:56:55.560Z,36.81
2016-06-06T09:57:05.563Z,37.15
2016-06-06T09:57:15.579Z,37.17
2016-06-06T09:57:25.579Z,37.47
2016-06-06T09:57:35.594Z,37.17
2016-06-06T09:57:45.610Z,37.17
2016-06-06T09:57:55.610Z,37.47
2016-06-06T09:58:05.612Z,37.07
2016-06-06T09:58:15.627Z,37.29
2016-06-06T09:58:25.627Z,37.09
2016-06-06T09:58:35.643Z,37.09
2016-06-06T09:58:46.221Z,36.91
2016-06-06T09:58:55.690Z,37.19
2016-06-06T09:59:05.677Z,37.21
2016-06-06T09:59:15.677Z,37.01
2016-06-06T09:59:26.334Z,36.91
2016-06-06T09:59:36.693Z,36.61
2016-06-06T09:59:46.005Z,36.61
2016-06-06T09:59:55.724Z,36.71
2016-06-06T10:00:05.727Z,36.61
2016-06-06T10:00:15.727Z,36.61
2016-06-06T10:00:25.743Z,36.81
2016-06-06T10:00:35.758Z,36.51
2016-06-06T10:00:45.758Z,36.61
2016-06-06T10:00:55.758Z,36.61
2016-06-06T10:01:05.777Z,36.81
2016-06-06T10:01:15.777Z,36.71
2016-06-06T10:01:25.824Z,36.63
2016-06-06T10:01:35.808Z,36.43
2016-06-06T10:01:45.808Z,36.53
2016-06-06T10:01:55.840Z,36.43
2016-06-06T10:02:05.826Z,36.33
2016-06-06T10:02:15.842Z,36.23
2016-06-06T10:02:25.842Z,36.45
2016-06-06T10:02:35.857Z,36.05
2016-06-06T10:02:45.857Z,35.85
2016-06-06T10:02:55.873Z,35.85
2016-06-06T10:03:05.876Z,35.85
2016-06-06T10:03:15.891Z,36.23
2016-06-06T10:03:25.891Z,36.13
2016-06-06T10:03:35.907Z,35.94
2016-06-06T10:03:45.907Z,36.05
2016-06-06T10:03:55.923Z,36.05
2016-06-06T10:04:05.940Z,35.55
2016-06-06T10:04:15.940Z,35.55
2016-06-06T10:04:25.956Z,35.95
2016-06-06T10:04:35.956Z,35.85
2016-06-06T10:04:45.956Z,35.75
2016-06-06T10:04:55.972Z,35.77
2016-06-06T10:05:05.990Z,35.77
2016-06-06T10:05:15.990Z,35.38
2016-06-06T10:05:26.006Z,35.47
2016-06-06T10:05:36.006Z,35.57
2016-06-06T10:05:46.021Z,35.57
2016-06-06T10:05:56.021Z,35.47
2016-06-06T10:06:06.040Z,35.57
2016-06-06T10:06:16.056Z,35.57
2016-06-06T10:06:26.056Z,35.47
2016-06-06T10:06:36.056Z,35.38
2016-06-06T10:06:46.071Z,35.47
2016-06-06T10:06:56.071Z,35.57
2016-06-06T10:07:06.090Z,35.67
2016-06-06T10:07:16.106Z,35.27
2016-06-06T10:07:26.106Z,35.38
2016-06-06T10:07:36.121Z,35.57
2016-06-06T10:07:46.121Z,35.38
2016-06-06T10:07:56.121Z,35.38
2016-06-06T10:08:06.139Z,35.36
2016-06-06T10:08:16.154Z,35.46
2016-06-06T10:08:26.154Z,35.26
2016-06-06T10:08:36.170Z,35.95
2016-06-06T10:08:46.170Z,35.85
2016-06-06T10:08:56.186Z,35.36
2016-06-06T10:09:06.189Z,35.36
2016-06-06T10:09:16.204Z,35.17
2016-06-06T10:09:26.204Z,35.17
2016-06-06T10:09:36.220Z,35.38
2016-06-06T10:09:46.236Z,35.38
2016-06-06T10:09:56.236Z,35.27
2016-06-06T10:10:06.238Z,34.69
2016-06-06T10:10:16.253Z,34.8
2016-06-06T10:10:26.269Z,35.08
2016-06-06T10:10:36.269Z,34.89
2016-06-06T10:10:46.269Z,34.88
2016-06-06T10:10:56.284Z,34.88
2016-06-06T10:11:06.304Z,34.78
2016-06-06T10:11:16.304Z,34.5
2016-06-06T10:11:26.320Z,34.88
2016-06-06T10:11:36.320Z,34.59
2016-06-06T10:11:46.335Z,34.89
2016-06-06T10:11:56.335Z,34.59
2016-06-06T10:12:06.369Z,34.89
2016-06-06T10:12:16.353Z,34.88
2016-06-06T10:12:26.369Z,35.17
2016-06-06T10:12:36.369Z,35.27
2016-06-06T10:12:46.384Z,35.27
2016-06-06T10:12:56.400Z,35.29
2016-06-06T10:13:06.402Z,35.17
2016-06-06T10:13:16.417Z,35.38
2016-06-06T10:13:26.417Z,35.46
2016-06-06T10:13:36.433Z,35.14
2016-06-06T10:13:46.777Z,35.46
2016-06-06T10:13:56.449Z,35.74
2016-06-06T10:14:06.453Z,35.46
2016-06-06T10:14:16.468Z,35.66
2016-06-06T10:14:26.468Z,35.46
2016-06-06T10:14:36.484Z,35.55
2016-06-06T10:14:46.484Z,35.44
2016-06-06T10:14:57.234Z,35.64
2016-06-06T10:15:06.705Z,35.74
2016-06-06T10:15:16.517Z,35.94
2016-06-06T10:15:26.533Z,35.83
2016-06-06T10:15:36.533Z,35.83
2016-06-06T10:15:46.548Z,36.51
2016-06-06T10:15:56.548Z,36.23
2016-06-06T10:16:06.567Z,36.33
2016-06-06T10:16:16.598Z,35.82
2016-06-06T10:16:26.583Z,35.83
2016-06-06T10:16:36.583Z,35.74
2016-06-06T10:16:46.598Z,36.04
2016-06-06T10:16:56.598Z,36.02
2016-06-06T10:17:06.616Z,35.92
2016-06-06T10:17:16.616Z,36.32
2016-06-06T10:17:26.632Z,36.32
2016-06-06T10:17:36.632Z,36.5
2016-06-06T10:17:46.647Z,36.51
2016-06-06T10:17:56.647Z,36.41
2016-06-06T10:18:06.666Z,36.41
2016-06-06T10:18:16.666Z,36.4
2016-06-06T10:18:26.681Z,36.69
2016-06-06T10:18:36.681Z,36.79
2016-06-06T10:18:46.697Z,36.6
2016-06-06T10:18:56.697Z,36.79
2016-06-06T10:19:06.716Z,36.71
2016-06-06T10:19:16.731Z,36.58
2016-06-06T10:19:26.731Z,36.69
2016-06-06T10:19:36.747Z,36.6
2016-06-06T10:19:46.747Z,36.68
2016-06-06T10:19:56.763Z,36.69
2016-06-06T10:20:06.766Z,36.96
2016-06-06T10:20:16.781Z,36.98
2016-06-06T10:20:26.781Z,36.86
2016-06-06T10:20:36.797Z,36.98
2016-06-06T10:20:46.797Z,37.27
2016-06-06T10:20:56.812Z,36.86
2016-06-06T10:21:06.814Z,36.98
2016-06-06T10:21:16.830Z,36.96
2016-06-06T10:21:26.846Z,36.86
2016-06-06T10:21:36.846Z,36.98
2016-06-06T10:21:46.846Z,36.86
2016-06-06T10:21:56.861Z,36.96
2016-06-06T10:22:06.864Z,36.86
2016-06-06T10:22:16.880Z,37.05
2016-06-06T10:22:26.896Z,37.05
2016-06-06T10:22:36.896Z,36.96
2016-06-06T10:22:46.911Z,36.96
2016-06-06T10:22:56.911Z,36.77
2016-06-06T10:23:06.945Z,36.56
2016-06-06T10:23:16.930Z,36.77
2016-06-06T10:23:26.945Z,36.77
2016-06-06T10:23:36.945Z,36.68
2016-06-06T10:23:46.961Z,36.88
2016-06-06T10:23:56.961Z,36.86
2016-06-06T10:24:06.979Z,36.96
2016-06-06T10:24:16.979Z,36.96
2016-06-06T10:24:26.994Z,36.96
2016-06-06T10:24:36.994Z,37.05
2016-06-06T10:24:47.010Z,37.13
2016-06-06T10:24:57.026Z,37.26
2016-06-06T10:25:07.029Z,36.84
2016-06-06T10:25:17.029Z,36.84
2016-06-06T10:25:27.044Z,36.84
2016-06-06T10:25:37.060Z,37.04
2016-06-06T10:25:47.060Z,37.24
2016-06-06T10:25:57.075Z,36.96
2016-06-06T10:26:07.078Z,36.86
2016-06-06T10:26:17.094Z,36.86
2016-06-06T10:26:27.094Z,36.86
2016-06-06T10:26:37.110Z,36.76
2016-06-06T10:26:47.110Z,36.76
2016-06-06T10:26:57.125Z,36.86
2016-06-06T10:27:07.127Z,36.77
2016-06-06T10:27:17.143Z,36.88
2016-06-06T10:27:27.143Z,36.58
2016-06-06T10:27:37.159Z,36.77
2016-06-06T10:27:47.174Z,36.58
2016-06-06T10:27:57.174Z,36.88
2016-06-06T10:28:07.192Z,36.79
2016-06-06T10:28:17.192Z,36.58
2016-06-06T10:28:27.207Z,36.77
2016-06-06T10:28:37.207Z,36.77
2016-06-06T10:28:48.098Z,36.88
2016-06-06T10:28:57.239Z,37.05
2016-06-06T10:29:07.508Z,36.86
2016-06-06T10:29:17.696Z,36.98
2016-06-06T10:29:27.477Z,37.07
2016-06-06T10:29:37.540Z,36.77
2016-06-06T10:29:47.274Z,37.07
2016-06-06T10:29:57.290Z,36.69
2016-06-06T10:30:07.292Z,36.88
2016-06-06T10:30:17.292Z,36.77
2016-06-06T10:30:27.307Z,36.88
2016-06-06T10:30:37.323Z,36.9
2016-06-06T10:30:47.323Z,36.68
2016-06-06T10:30:57.338Z,36.68
2016-06-06T10:31:07.341Z,36.58
2016-06-06T10:31:17.357Z,36.68
2016-06-06T10:31:27.357Z,36.79
2016-06-06T10:31:37.373Z,36.79
2016-06-06T10:31:47.373Z,36.6
2016-06-06T10:31:57.388Z,36.68
2016-06-06T10:32:07.390Z,36.6
2016-06-06T10:32:17.406Z,36.5
2016-06-06T10:32:27.406Z,36.48
2016-06-06T10:32:37.422Z,36.5
2016-06-06T10:32:47.422Z,36.79
2016-06-06T10:32:57.437Z,36.68
2016-06-06T10:33:07.440Z,36.6
2016-06-06T10:33:17.456Z,36.58
2016-06-06T10:33:27.471Z,36.6
2016-06-06T10:33:37.471Z,36.4
2016-06-06T10:33:47.487Z,36.3
2016-06-06T10:33:57.487Z,36.3
2016-06-06T10:34:07.506Z,36.1
2016-06-06T10:34:17.506Z,36
2016-06-06T10:34:27.521Z,36.11
2016-06-06T10:34:37.521Z,36.51
2016-06-06T10:34:47.537Z,36.2
2016-06-06T10:34:57.537Z,36.02
2016-06-06T10:35:07.556Z,36.1
2016-06-06T10:35:17.556Z,35.92
2016-06-06T10:35:27.571Z,35.92
2016-06-06T10:35:37.571Z,36.32
2016-06-06T10:35:47.587Z,36.11
2016-06-06T10:35:57.587Z,36.4
2016-06-06T10:36:07.604Z,36.5
2016-06-06T10:36:17.604Z,36.5
2016-06-06T10:36:27.620Z,36.5
2016-06-06T10:36:37.620Z,36.6
2016-06-06T10:36:47.636Z,36.41
2016-06-06T10:36:57.651Z,36.4
2016-06-06T10:37:07.701Z,36.77
2016-06-06T10:37:17.670Z,36.58
2016-06-06T10:37:27.670Z,36.58
2016-06-06T10:37:37.686Z,36.5
2016-06-06T10:37:47.686Z,36.79
2016-06-06T10:37:57.701Z,36.6
2016-06-06T10:38:07.703Z,36.69
2016-06-06T10:38:17.719Z,36.41
2016-06-06T10:38:27.719Z,36.41
2016-06-06T10:38:37.750Z,36.11
2016-06-06T10:38:47.750Z,36.11
2016-06-06T10:38:57.750Z,36.22
2016-06-06T10:39:07.754Z,35.92
2016-06-06T10:39:17.770Z,35.92
2016-06-06T10:39:27.785Z,35.83
2016-06-06T10:39:37.785Z,35.83
2016-06-06T10:39:47.801Z,35.74
2016-06-06T10:39:57.801Z,35.34
2016-06-06T10:40:07.819Z,35.46
2016-06-06T10:40:17.819Z,35.66
2016-06-06T10:40:27.834Z,35.85
2016-06-06T10:40:37.850Z,35.55
2016-06-06T10:40:47.850Z,35.46
2016-06-06T10:40:57.850Z,35.46
2016-06-06T10:41:07.868Z,35.36
2016-06-06T10:41:17.868Z,35.57
2016-06-06T10:41:27.884Z,35.38
2016-06-06T10:41:37.884Z,35.47
2016-06-06T10:41:47.900Z,35.46
2016-06-06T10:41:57.915Z,35.77
2016-06-06T10:42:07.917Z,35.67
2016-06-06T10:42:17.917Z,35.36
2016-06-06T10:42:27.933Z,35.38
2016-06-06T10:42:37.949Z,35.27
2016-06-06T10:42:47.949Z,35.47
2016-06-06T10:42:57.964Z,35.57
2016-06-06T10:43:07.967Z,35.47
2016-06-06T10:43:17.983Z,35.47
2016-06-06T10:43:27.983Z,35.77
2016-06-06T10:43:37.998Z,35.85
2016-06-06T10:43:47.998Z,35.67
2016-06-06T10:43:58.014Z,36.15
2016-06-06T10:44:08.033Z,35.85
2016-06-06T10:44:18.033Z,36.43
2016-06-06T10:44:28.455Z,36.13
2016-06-06T10:44:38.861Z,36.05
2016-06-06T10:44:48.048Z,35.95
2016-06-06T10:44:58.064Z,36.15
2016-06-06T10:45:08.817Z,36.05
2016-06-06T10:45:18.083Z,35.95
2016-06-06T10:45:28.098Z,36.05
2016-06-06T10:45:38.098Z,35.95
2016-06-06T10:45:48.114Z,35.66
2016-06-06T10:45:58.114Z,35.77
2016-06-06T10:46:08.131Z,35.75
2016-06-06T10:46:18.131Z,36.15
2016-06-06T10:46:28.147Z,35.85
2016-06-06T10:46:38.147Z,36.05
2016-06-06T10:46:48.163Z,36.05
2016-06-06T10:46:58.163Z,36.23
2016-06-06T10:47:08.181Z,36.73
2016-06-06T10:47:18.181Z,37.01
2016-06-06T10:47:28.197Z,37.01
2016-06-06T10:47:38.197Z,37.21
2016-06-06T10:47:48.213Z,37.41
2016-06-06T10:47:58.228Z,37.3
2016-06-06T10:48:08.231Z,37.59
2016-06-06T10:48:18.247Z,37.19
2016-06-06T10:48:28.247Z,37.98
2016-06-06T10:48:38.262Z,38.09
2016-06-06T10:48:48.262Z,38.24
2016-06-06T10:48:58.278Z,38.34
2016-06-06T10:49:08.280Z,38.84
2016-06-06T10:49:18.296Z,38.64
2016-06-06T10:49:28.311Z,38.84
2016-06-06T10:49:39.077Z,38.84